sensor_id;sensor_type;location;lat;lon;timestamp;pressure;altitude;pressure_sealevel;temperature;humidity
58739;BME280;44512;53.046;18.604;2023-05-12T00:04:54;102217.42;;;16.95;29.92
58739;BME280;44512;53.046;18.604;2023-05-12T00:15:23;102211.28;;;16.80;30.27
58739;BME280;44512;53.046;18.604;2023-05-12T00:25:51;102203.42;;;16.63;30.64
58739;BME280;44512;53.046;18.604;2023-05-12T00:36:20;102208.84;;;16.50;30.97
58739;BME280;44512;53.046;18.604;2023-05-12T00:46:49;102214.47;;;16.42;31.29
58739;BME280;44512;53.046;18.604;2023-05-12T00:57:17;102222.41;;;16.30;31.58
58739;BME280;44512;53.046;18.604;2023-05-12T01:07:45;102227.78;;;16.17;31.97
58739;BME280;44512;53.046;18.604;2023-05-12T01:18:18;102226.46;;;16.06;32.29
58739;BME280;44512;53.046;18.604;2023-05-12T01:28:42;102228.52;;;15.98;32.50
58739;BME280;44512;53.046;18.604;2023-05-12T01:39:10;102240.18;;;15.85;32.74
58739;BME280;44512;53.046;18.604;2023-05-12T01:49:38;102245.55;;;15.72;33.07
58739;BME280;44512;53.046;18.604;2023-05-12T02:00:08;102239.10;;;15.58;33.42
58739;BME280;44512;53.046;18.604;2023-05-12T02:10:35;102246.13;;;15.46;33.76
58739;BME280;44512;53.046;18.604;2023-05-12T02:21:04;102260.48;;;15.33;33.95
58739;BME280;44512;53.046;18.604;2023-05-12T02:31:32;102252.17;;;15.20;34.20
58739;BME280;44512;53.046;18.604;2023-05-12T02:42:00;102258.78;;;15.10;34.42
58739;BME280;44512;53.046;18.604;2023-05-12T02:52:29;102271.05;;;15.00;34.66
58739;BME280;44512;53.046;18.604;2023-05-12T03:02:57;102268.99;;;14.87;34.89
58739;BME280;44512;53.046;18.604;2023-05-12T03:13:25;102262.15;;;14.76;35.14
58739;BME280;44512;53.046;18.604;2023-05-12T03:23:54;102271.66;;;14.66;35.42
58739;BME280;44512;53.046;18.604;2023-05-12T03:34:22;102275.71;;;14.55;35.67
58739;BME280;44512;53.046;18.604;2023-05-12T03:44:50;102283.10;;;14.46;35.96
58739;BME280;44512;53.046;18.604;2023-05-12T03:55:19;102290.98;;;14.41;36.20
58739;BME280;44512;53.046;18.604;2023-05-12T04:05:47;102309.77;;;14.36;36.48
58739;BME280;44512;53.046;18.604;2023-05-12T04:16:16;102304.72;;;14.33;36.61
58739;BME280;44512;53.046;18.604;2023-05-12T04:26:44;102316.36;;;14.27;36.82
58739;BME280;44512;53.046;18.604;2023-05-12T04:37:12;102322.66;;;14.27;36.98
58739;BME280;44512;53.046;18.604;2023-05-12T04:47:41;102328.94;;;14.28;37.13
58739;BME280;44512;53.046;18.604;2023-05-12T04:58:09;102335.88;;;14.30;37.38
58739;BME280;44512;53.046;18.604;2023-05-12T05:08:38;102346.61;;;14.32;37.64
58739;BME280;44512;53.046;18.604;2023-05-12T05:19:06;102341.62;;;14.36;37.85
58739;BME280;44512;53.046;18.604;2023-05-12T05:29:34;102343.78;;;14.40;37.84
58739;BME280;44512;53.046;18.604;2023-05-12T05:40:03;102354.64;;;14.48;38.01
58739;BME280;44512;53.046;18.604;2023-05-12T05:50:31;102347.88;;;14.59;38.00
58739;BME280;44512;53.046;18.604;2023-05-12T06:00:59;102357.46;;;14.70;38.19
58739;BME280;44512;53.046;18.604;2023-05-12T06:11:28;102368.73;;;14.81;38.26
58739;BME280;44512;53.046;18.604;2023-05-12T06:21:56;102373.54;;;14.94;38.50
58739;BME280;44512;53.046;18.604;2023-05-12T06:32:25;102386.28;;;15.08;38.56
58739;BME280;44512;53.046;18.604;2023-05-12T06:42:53;102391.72;;;15.23;38.64
58739;BME280;44512;53.046;18.604;2023-05-12T06:53:21;102400.54;;;15.40;38.65
58739;BME280;44512;53.046;18.604;2023-05-12T07:03:50;102393.15;;;15.55;38.48
58739;BME280;44512;53.046;18.604;2023-05-12T07:14:18;102395.69;;;15.72;38.31
58739;BME280;44512;53.046;18.604;2023-05-12T07:24:46;102387.24;;;15.88;38.30
58739;BME280;44512;53.046;18.604;2023-05-12T07:35:15;102398.73;;;16.05;38.26
58739;BME280;44512;53.046;18.604;2023-05-12T07:45:44;102399.30;;;16.22;37.99
58739;BME280;44512;53.046;18.604;2023-05-12T07:56:11;102402.41;;;16.40;37.70
58739;BME280;44512;53.046;18.604;2023-05-12T08:06:40;102392.85;;;16.57;37.43
58739;BME280;44512;53.046;18.604;2023-05-12T08:17:08;102399.93;;;16.73;36.89
58739;BME280;44512;53.046;18.604;2023-05-12T08:27:37;102392.23;;;16.90;35.69
58739;BME280;44512;53.046;18.604;2023-05-12T08:38:05;102386.45;;;17.06;34.20
58739;BME280;44512;53.046;18.604;2023-05-12T08:48:34;102362.52;;;17.22;32.67
58739;BME280;44512;53.046;18.604;2023-05-12T08:59:02;102374.16;;;17.37;31.40
58739;BME280;44512;53.046;18.604;2023-05-12T09:09:30;102374.84;;;17.52;31.08
58739;BME280;44512;53.046;18.604;2023-05-12T09:19:58;102370.00;;;17.67;30.55
58739;BME280;44512;53.046;18.604;2023-05-12T09:30:31;102365.22;;;17.83;31.58
58739;BME280;44512;53.046;18.604;2023-05-12T09:40:55;102369.88;;;18.02;29.92
58739;BME280;44512;53.046;18.604;2023-05-12T09:51:25;102368.20;;;18.21;30.26
58739;BME280;44512;53.046;18.604;2023-05-12T10:01:53;102383.80;;;18.40;29.29
58739;BME280;44512;53.046;18.604;2023-05-12T10:12:20;102359.94;;;18.54;28.39
58739;BME280;44512;53.046;18.604;2023-05-12T10:22:48;102358.43;;;18.65;28.59
58739;BME280;44512;53.046;18.604;2023-05-12T10:33:17;102352.53;;;18.74;28.12
58739;BME280;44512;53.046;18.604;2023-05-12T10:43:47;102368.13;;;18.87;27.78
58739;BME280;44512;53.046;18.604;2023-05-12T10:54:20;102332.62;;;18.99;27.78
58739;BME280;44512;53.046;18.604;2023-05-12T11:04:52;102349.46;;;19.09;26.98
58739;BME280;44512;53.046;18.604;2023-05-12T11:15:11;102342.67;;;19.18;27.71
58739;BME280;44512;53.046;18.604;2023-05-12T11:25:39;102339.84;;;19.32;27.80
58739;BME280;44512;53.046;18.604;2023-05-12T11:36:07;102350.59;;;19.40;27.68
58739;BME280;44512;53.046;18.604;2023-05-12T11:46:35;102342.48;;;19.51;27.80
58739;BME280;44512;53.046;18.604;2023-05-12T11:57:04;102346.02;;;19.65;26.72
58739;BME280;44512;53.046;18.604;2023-05-12T12:07:34;102323.32;;;19.76;26.81
58739;BME280;44512;53.046;18.604;2023-05-12T12:18:01;102328.70;;;19.90;26.77
58739;BME280;44512;53.046;18.604;2023-05-12T12:28:29;102332.66;;;20.00;25.51
58739;BME280;44512;53.046;18.604;2023-05-12T12:38:58;102330.24;;;20.11;25.46
58739;BME280;44512;53.046;18.604;2023-05-12T12:49:25;102332.02;;;20.23;24.82
58739;BME280;44512;53.046;18.604;2023-05-12T12:59:54;102314.77;;;20.35;24.64
58739;BME280;44512;53.046;18.604;2023-05-12T13:10:22;102311.26;;;20.46;24.58
58739;BME280;44512;53.046;18.604;2023-05-12T13:20:50;102300.16;;;20.59;23.93
58739;BME280;44512;53.046;18.604;2023-05-12T13:31:19;102310.09;;;20.78;23.46
58739;BME280;44512;53.046;18.604;2023-05-12T13:41:47;102305.20;;;20.99;22.72
58739;BME280;44512;53.046;18.604;2023-05-12T13:52:15;102289.09;;;21.14;22.67
58739;BME280;44512;53.046;18.604;2023-05-12T14:02:44;102287.82;;;21.28;22.75
58739;BME280;44512;53.046;18.604;2023-05-12T14:13:12;102292.23;;;21.48;21.87
58739;BME280;44512;53.046;18.604;2023-05-12T14:23:40;102288.67;;;21.71;21.55
58739;BME280;44512;53.046;18.604;2023-05-12T14:34:09;102285.51;;;21.97;21.32
58739;BME280;44512;53.046;18.604;2023-05-12T14:49:53;102302.52;;;22.65;20.76
58739;BME280;44512;53.046;18.604;2023-05-12T15:00:21;102292.29;;;23.17;20.07
58739;BME280;44512;53.046;18.604;2023-05-12T15:10:50;102284.23;;;23.61;19.85
58739;BME280;44512;53.046;18.604;2023-05-12T15:21:18;102288.62;;;24.07;19.21
58739;BME280;44512;53.046;18.604;2023-05-12T15:31:46;102282.87;;;24.48;18.99
58739;BME280;44512;53.046;18.604;2023-05-12T15:42:15;102290.48;;;24.79;18.79
58739;BME280;44512;53.046;18.604;2023-05-12T15:52:43;102279.70;;;25.05;18.43
58739;BME280;44512;53.046;18.604;2023-05-12T16:03:11;102267.20;;;25.24;17.95
58739;BME280;44512;53.046;18.604;2023-05-12T16:13:40;102280.84;;;25.31;18.08
58739;BME280;44512;53.046;18.604;2023-05-12T16:24:09;102283.44;;;25.42;17.79
58739;BME280;44512;53.046;18.604;2023-05-12T16:34:36;102279.59;;;25.43;17.65
58739;BME280;44512;53.046;18.604;2023-05-12T16:45:06;102297.79;;;25.34;17.80
58739;BME280;44512;53.046;18.604;2023-05-12T16:55:33;102291.36;;;25.29;17.62
58739;BME280;44512;53.046;18.604;2023-05-12T17:06:01;102303.05;;;25.09;17.67
58739;BME280;44512;53.046;18.604;2023-05-12T17:16:30;102296.22;;;24.73;17.62
58739;BME280;44512;53.046;18.604;2023-05-12T17:26:58;102303.66;;;24.33;17.84
58739;BME280;44512;53.046;18.604;2023-05-12T17:37:26;102304.90;;;24.04;18.06
58739;BME280;44512;53.046;18.604;2023-05-12T17:47:55;102313.01;;;23.77;18.42
58739;BME280;44512;53.046;18.604;2023-05-12T17:58:23;102324.51;;;23.57;18.70
58739;BME280;44512;53.046;18.604;2023-05-12T18:08:51;102321.87;;;23.33;19.07
58739;BME280;44512;53.046;18.604;2023-05-12T18:19:20;102338.41;;;23.17;19.57
58739;BME280;44512;53.046;18.604;2023-05-12T18:29:48;102341.08;;;23.00;20.03
58739;BME280;44512;53.046;18.604;2023-05-12T18:40:16;102347.84;;;22.80;20.23
58739;BME280;44512;53.046;18.604;2023-05-12T18:50:45;102359.01;;;22.62;20.71
58739;BME280;44512;53.046;18.604;2023-05-12T19:01:13;102369.58;;;22.42;21.35
58739;BME280;44512;53.046;18.604;2023-05-12T19:11:47;102380.62;;;22.18;22.05
58739;BME280;44512;53.046;18.604;2023-05-12T19:22:10;102391.55;;;21.95;22.43
58739;BME280;44512;53.046;18.604;2023-05-12T19:32:39;102386.00;;;21.71;22.91
58739;BME280;44512;53.046;18.604;2023-05-12T19:43:07;102399.42;;;21.49;23.51
58739;BME280;44512;53.046;18.604;2023-05-12T19:53:35;102404.32;;;21.29;23.77
58739;BME280;44512;53.046;18.604;2023-05-12T20:04:03;102400.96;;;21.08;24.17
58739;BME280;44512;53.046;18.604;2023-05-12T20:14:33;102407.33;;;20.91;24.50
58739;BME280;44512;53.046;18.604;2023-05-12T20:25:00;102400.11;;;20.71;24.81
58739;BME280;44512;53.046;18.604;2023-05-12T20:35:28;102407.73;;;20.51;25.16
58739;BME280;44512;53.046;18.604;2023-05-12T20:45:57;102401.52;;;20.30;25.33
58739;BME280;44512;53.046;18.604;2023-05-12T20:56:25;102408.05;;;20.11;25.56
58739;BME280;44512;53.046;18.604;2023-05-12T21:06:54;102422.55;;;19.93;25.84
58739;BME280;44512;53.046;18.604;2023-05-12T21:17:22;102428.15;;;19.73;26.31
58739;BME280;44512;53.046;18.604;2023-05-12T21:27:50;102431.85;;;19.54;26.80
58739;BME280;44512;53.046;18.604;2023-05-12T21:38:19;102432.77;;;19.35;27.33
58739;BME280;44512;53.046;18.604;2023-05-12T21:48:47;102440.45;;;19.13;27.74
58739;BME280;44512;53.046;18.604;2023-05-12T21:59:16;102442.17;;;18.94;28.10
58739;BME280;44512;53.046;18.604;2023-05-12T22:09:44;102436.72;;;18.74;28.37
58739;BME280;44512;53.046;18.604;2023-05-12T22:20:12;102439.66;;;18.53;28.81
58739;BME280;44512;53.046;18.604;2023-05-12T22:30:40;102439.45;;;18.28;29.30
58739;BME280;44512;53.046;18.604;2023-05-12T22:41:09;102448.50;;;18.02;29.82
58739;BME280;44512;53.046;18.604;2023-05-12T22:51:37;102449.06;;;17.77;30.24
58739;BME280;44512;53.046;18.604;2023-05-12T23:02:05;102450.67;;;17.58;30.39
58739;BME280;44512;53.046;18.604;2023-05-12T23:12:34;102451.43;;;17.39;30.83
58739;BME280;44512;53.046;18.604;2023-05-12T23:23:02;102458.94;;;17.24;31.27
58739;BME280;44512;53.046;18.604;2023-05-12T23:33:31;102448.31;;;17.07;31.58
58739;BME280;44512;53.046;18.604;2023-05-12T23:43:59;102442.75;;;16.94;31.92
58739;BME280;44512;53.046;18.604;2023-05-12T23:54:27;102429.20;;;16.79;32.08
